createdAt,value
2023-03-24T00:01:02.733Z,18.30
2023-03-24T00:04:07.157Z,18.33
2023-03-24T00:07:15.355Z,18.20
2023-03-24T00:10:20.976Z,16.90
2023-03-24T00:13:25.193Z,17.07
2023-03-24T00:16:31.484Z,18.07
2023-03-24T00:19:38.730Z,18.77
2023-03-24T00:22:43.921Z,19.23
2023-03-24T00:25:49.913Z,19.60
2023-03-24T00:28:54.584Z,19.43
2023-03-24T00:32:00.353Z,19.87
2023-03-24T00:35:05.504Z,20.13
2023-03-24T00:38:09.705Z,20.27
2023-03-24T00:41:13.950Z,20.90
2023-03-24T00:44:19.514Z,20.43
2023-03-24T00:47:26.565Z,21.47
2023-03-24T00:50:33.918Z,20.50
2023-03-24T00:53:38.397Z,20.97
2023-03-24T00:56:44.057Z,21.10
2023-03-24T00:59:49.356Z,21.20
2023-03-24T01:06:23.632Z,18.13
2023-03-24T01:09:27.836Z,18.90
2023-03-24T01:12:34.467Z,18.00
2023-03-24T01:15:38.772Z,18.90
2023-03-24T01:18:44.608Z,18.53
2023-03-24T01:21:51.314Z,18.87
2023-03-24T01:24:55.440Z,18.03
2023-03-24T01:27:59.696Z,18.57
2023-03-24T01:31:03.871Z,17.70
2023-03-24T01:34:09.673Z,18.30
2023-03-24T01:37:13.697Z,17.03
2023-03-24T01:40:21.158Z,18.33
2023-03-24T01:43:28.298Z,17.43
2023-03-24T01:46:34.508Z,17.30
2023-03-24T01:49:46.100Z,18.23
2023-03-24T01:52:50.337Z,18.50
2023-03-24T01:55:56.196Z,18.70
2023-03-24T01:59:10.978Z,18.70
2023-03-24T02:02:28.310Z,18.23
2023-03-24T02:05:40.769Z,17.70
2023-03-24T02:08:50.378Z,18.67
2023-03-24T02:11:54.583Z,17.30
2023-03-24T02:14:58.918Z,17.47
2023-03-24T02:18:10.845Z,16.60
2023-03-24T02:22:02.913Z,18.60
2023-03-24T02:25:44.476Z,18.17
2023-03-24T02:28:53.746Z,18.00
2023-03-24T02:32:14.424Z,17.83
2023-03-24T02:35:45.690Z,18.67
2023-03-24T02:39:33.142Z,18.83
2023-03-24T02:42:47.220Z,18.23
2023-03-24T02:46:03.360Z,18.97
2023-03-24T02:49:19.518Z,16.67
2023-03-24T02:52:31.895Z,16.67
2023-03-24T02:55:43.558Z,15.50
2023-03-24T02:58:53.781Z,15.97
2023-03-24T03:02:03.254Z,14.40
2023-03-24T03:05:19.533Z,13.27
2023-03-24T03:08:25.766Z,14.40
2023-03-24T03:11:31.761Z,13.43
2023-03-24T03:14:40.190Z,14.37
2023-03-24T03:17:50.634Z,14.33
2023-03-24T03:48:26.938Z,14.33
2023-03-24T03:51:31.490Z,12.87
2023-03-24T03:54:36.228Z,12.63
2023-03-24T03:57:41.097Z,12.63
2023-03-24T04:00:49.697Z,12.73
2023-03-24T04:04:38.342Z,12.90
2023-03-24T04:08:20.269Z,12.20
2023-03-24T04:11:59.157Z,12.70
2023-03-24T04:15:37.748Z,12.73
2023-03-24T04:19:07.675Z,13.77
2023-03-24T04:22:27.208Z,13.00
2023-03-24T04:25:59.013Z,13.67
2023-03-24T04:29:10.331Z,13.57
2023-03-24T04:32:20.798Z,12.90
2023-03-24T04:35:33.040Z,12.50
2023-03-24T04:39:02.019Z,12.60
2023-03-24T04:42:19.472Z,11.73
2023-03-24T04:45:26.289Z,12.53
2023-03-24T04:48:54.189Z,12.13
2023-03-24T04:52:07.029Z,11.93
2023-03-24T04:55:39.389Z,12.20
2023-03-24T04:58:43.566Z,12.57
2023-03-24T05:01:50.213Z,11.47
2023-03-24T05:05:07.304Z,12.63
2023-03-24T05:08:18.038Z,12.53
2023-03-24T05:11:23.553Z,12.03
2023-03-24T05:14:37.702Z,12.80
2023-03-24T05:17:43.652Z,13.17
2023-03-24T05:20:48.580Z,13.83
2023-03-24T05:23:56.971Z,13.10
2023-03-24T05:27:03.384Z,14.50
2023-03-24T05:30:09.074Z,14.07
2023-03-24T05:33:14.042Z,15.20
2023-03-24T05:36:18.378Z,14.00
2023-03-24T05:39:30.641Z,15.40
2023-03-24T05:42:45.123Z,14.33
2023-03-24T05:45:51.222Z,14.07
2023-03-24T05:49:07.307Z,15.10
2023-03-24T05:52:16.757Z,15.53
2023-03-24T05:55:24.536Z,16.47
2023-03-24T05:58:39.513Z,17.03
2023-03-24T06:01:43.934Z,18.23
2023-03-24T06:04:58.084Z,17.00
2023-03-24T06:08:04.335Z,17.97
2023-03-24T06:11:11.654Z,17.90
2023-03-24T06:14:27.883Z,17.50
2023-03-24T06:17:43.669Z,18.00
2023-03-24T06:20:59.710Z,17.13
2023-03-24T06:24:07.244Z,18.77
2023-03-24T06:27:12.464Z,17.97
2023-03-24T06:30:19.877Z,18.80
2023-03-24T06:33:26.255Z,17.37
2023-03-24T06:36:31.808Z,17.23
2023-03-24T06:39:36.004Z,13.57
2023-03-24T06:42:40.155Z,13.80
2023-03-24T06:45:46.327Z,13.60
2023-03-24T06:48:55.641Z,12.47
2023-03-24T06:51:59.966Z,13.83
2023-03-24T06:55:06.485Z,12.83
2023-03-24T06:58:10.763Z,12.77
2023-03-24T07:01:24.769Z,12.27
2023-03-24T07:04:29.427Z,12.17
2023-03-24T07:08:34.038Z,12.83
2023-03-24T07:11:37.895Z,12.20
2023-03-24T07:14:42.146Z,12.23
2023-03-24T07:17:47.887Z,13.67
2023-03-24T07:21:06.950Z,14.10
2023-03-24T07:24:12.537Z,13.37
2023-03-24T07:27:29.057Z,14.57
2023-03-24T07:30:39.950Z,14.80
2023-03-24T07:33:47.667Z,16.17
2023-03-24T07:36:51.876Z,16.53
2023-03-24T07:39:56.343Z,15.20
2023-03-24T07:43:03.114Z,17.17
2023-03-24T07:46:10.921Z,17.07
2023-03-24T07:49:19.668Z,18.20
2023-03-24T07:52:51.356Z,16.47
2023-03-24T07:55:57.569Z,16.43
2023-03-24T07:59:02.429Z,17.30
2023-03-24T08:02:18.242Z,16.03
2023-03-24T08:05:33.602Z,17.73
2023-03-24T08:08:52.821Z,16.63
2023-03-24T08:11:57.885Z,18.07
2023-03-24T08:15:03.455Z,16.50
2023-03-24T08:18:08.003Z,16.77
2023-03-24T08:21:13.707Z,15.43
2023-03-24T08:24:17.924Z,15.40
2023-03-24T08:27:22.040Z,16.20
2023-03-24T08:30:28.686Z,15.63
2023-03-24T08:33:33.637Z,16.67
2023-03-24T08:36:39.394Z,15.27
2023-03-24T08:39:43.546Z,14.90
2023-03-24T08:42:50.194Z,15.53
2023-03-24T08:45:54.290Z,16.20
2023-03-24T08:48:58.933Z,15.03
2023-03-24T08:52:05.082Z,13.97
2023-03-24T08:55:10.594Z,12.90
2023-03-24T08:58:16.977Z,13.40
2023-03-24T09:01:21.883Z,12.03
2023-03-24T09:04:26.617Z,11.30
2023-03-24T09:07:32.382Z,10.80
2023-03-24T09:10:37.174Z,10.30
2023-03-24T09:13:41.381Z,10.60
2023-03-24T09:16:45.635Z,11.80
2023-03-24T09:19:49.700Z,11.40
2023-03-24T09:22:56.295Z,11.17
2023-03-24T09:26:00.729Z,10.40
2023-03-24T09:29:04.939Z,11.00
2023-03-24T09:32:09.168Z,10.68
2023-03-24T09:35:13.294Z,10.70
2023-03-24T09:38:18.988Z,9.57
2023-03-24T09:41:26.339Z,10.35
2023-03-24T09:44:36.022Z,10.30
2023-03-24T09:47:43.108Z,10.33
2023-03-24T09:50:55.005Z,10.75
2023-03-24T09:54:11.107Z,10.30
2023-03-24T09:57:22.378Z,9.80
2023-03-24T10:00:28.662Z,10.43
2023-03-24T10:03:33.120Z,9.23
2023-03-24T10:06:42.311Z,10.20
2023-03-24T10:09:55.043Z,9.80
2023-03-24T10:13:05.717Z,10.88
2023-03-24T10:16:17.349Z,10.27
2023-03-24T10:19:35.794Z,9.13
2023-03-24T10:22:46.743Z,9.75
2023-03-24T10:25:56.181Z,10.82
2023-03-24T10:29:17.029Z,10.30
2023-03-24T10:32:25.093Z,10.43
2023-03-24T10:35:31.866Z,9.80
2023-03-24T10:38:36.121Z,10.07
2023-03-24T10:41:44.257Z,9.73
2023-03-24T10:44:49.931Z,10.43
2023-03-24T10:47:56.665Z,10.13
2023-03-24T10:51:01.391Z,10.20
2023-03-24T10:54:13.167Z,10.18
2023-03-24T10:57:20.660Z,10.65
2023-03-24T11:00:30.173Z,9.43
2023-03-24T11:03:38.618Z,10.27
2023-03-24T11:06:56.451Z,10.07
2023-03-24T11:10:04.077Z,8.40
2023-03-24T11:13:19.935Z,8.27
2023-03-24T11:16:29.275Z,9.15
2023-03-24T11:19:34.895Z,8.43
2023-03-24T11:22:41.393Z,8.55
2023-03-24T11:25:51.846Z,9.77
2023-03-24T11:29:00.486Z,8.13
2023-03-24T11:32:12.483Z,8.65
2023-03-24T11:35:20.595Z,8.23
2023-03-24T11:38:32.415Z,8.77
2023-03-24T11:41:38.794Z,9.32
2023-03-24T11:44:51.117Z,9.85
2023-03-24T11:47:57.827Z,9.23
2023-03-24T11:51:03.054Z,9.50
2023-03-24T11:54:13.565Z,9.27
2023-03-24T11:57:29.764Z,9.63
2023-03-24T12:00:39.746Z,8.18
2023-03-24T12:04:08.648Z,8.23
2023-03-24T12:07:39.947Z,7.57
2023-03-24T12:10:57.599Z,7.63
2023-03-24T12:14:06.587Z,7.28
2023-03-24T12:17:16.437Z,7.72
2023-03-24T12:20:25.552Z,8.20
2023-03-24T12:23:40.200Z,6.70
2023-03-24T12:26:44.328Z,6.53
2023-03-24T12:30:00.273Z,5.80
2023-03-24T12:33:25.808Z,6.05
2023-03-24T12:36:48.206Z,5.80
2023-03-24T12:40:01.760Z,6.45
2023-03-24T12:43:17.676Z,5.93
2023-03-24T12:46:47.981Z,5.18
2023-03-24T12:50:13.602Z,5.32
2023-03-24T12:53:31.270Z,8.90
2023-03-24T12:56:41.561Z,7.82
2023-03-24T12:59:50.465Z,6.55
2023-03-24T13:02:58.772Z,6.30
2023-03-24T13:06:17.706Z,5.13
2023-03-24T13:09:33.638Z,4.90
2023-03-24T13:12:43.939Z,4.93
2023-03-24T13:15:51.497Z,5.10
2023-03-24T13:19:00.133Z,5.68
2023-03-24T13:22:08.499Z,5.70
2023-03-24T13:25:26.891Z,5.25
2023-03-24T13:28:37.241Z,4.95
2023-03-24T13:31:46.134Z,5.10
2023-03-24T13:34:56.841Z,5.00
2023-03-24T13:38:07.799Z,5.18
2023-03-24T13:41:18.813Z,5.35
2023-03-24T13:44:25.989Z,4.80
2023-03-24T13:47:49.889Z,4.50
2023-03-24T13:51:00.362Z,5.38
2023-03-24T13:54:11.691Z,5.38
2023-03-24T13:57:20.782Z,5.35
2023-03-24T14:00:27.082Z,6.75
2023-03-24T14:03:35.142Z,5.47
2023-03-24T14:06:49.004Z,5.15
2023-03-24T14:10:01.757Z,4.90
2023-03-24T14:13:09.536Z,4.70
2023-03-24T14:16:38.303Z,4.20
2023-03-24T14:19:43.937Z,4.13
2023-03-24T14:22:49.759Z,4.50
2023-03-24T14:25:58.691Z,4.10
2023-03-24T14:29:03.295Z,3.90
2023-03-24T14:32:19.177Z,3.70
2023-03-24T14:35:34.938Z,3.78
2023-03-24T14:38:42.458Z,4.10
2023-03-24T14:41:52.275Z,3.55
2023-03-24T14:44:58.827Z,3.97
2023-03-24T14:48:04.723Z,3.78
2023-03-24T14:51:21.910Z,3.63
2023-03-24T14:54:31.379Z,3.40
2023-03-24T14:57:42.677Z,3.65
2023-03-24T15:01:06.555Z,3.75
2023-03-24T15:04:14.047Z,3.60
2023-03-24T15:07:18.290Z,3.80
2023-03-24T15:10:22.468Z,3.67
2023-03-24T15:13:37.835Z,3.33
2023-03-24T15:16:42.133Z,5.22
2023-03-24T15:19:47.101Z,3.50
2023-03-24T15:22:55.368Z,3.67
2023-03-24T15:25:59.614Z,3.35
2023-03-24T15:29:08.256Z,3.10
2023-03-24T15:32:19.136Z,3.28
2023-03-24T15:35:24.752Z,3.70
2023-03-24T15:38:31.825Z,3.80
2023-03-24T15:41:36.180Z,4.15
2023-03-24T15:44:42.996Z,3.25
2023-03-24T15:47:47.261Z,3.20
2023-03-24T15:51:00.452Z,5.65
2023-03-24T15:54:04.535Z,3.80
2023-03-24T15:57:17.888Z,3.63
2023-03-24T16:00:27.095Z,45.63
2023-03-24T16:03:34.660Z,3.90
2023-03-24T16:06:41.655Z,3.75
2023-03-24T16:09:45.841Z,3.17
2023-03-24T16:12:50.025Z,4.00
2023-03-24T16:15:59.002Z,4.85
2023-03-24T16:19:04.734Z,4.10
2023-03-24T16:22:12.858Z,3.87
2023-03-24T16:25:18.503Z,6.80
2023-03-24T16:28:25.435Z,7.03
2023-03-24T16:31:34.090Z,3.73
2023-03-24T16:34:38.501Z,5.83
2023-03-24T16:37:43.712Z,5.97
2023-03-24T16:40:50.902Z,5.03
2023-03-24T16:43:55.912Z,4.97
2023-03-24T16:47:01.658Z,4.90
2023-03-24T16:50:26.703Z,5.10
2023-03-24T16:53:31.077Z,6.00
2023-03-24T16:56:35.584Z,5.57
2023-03-24T16:59:39.840Z,5.80
2023-03-24T17:02:48.691Z,5.57
2023-03-24T17:05:53.403Z,5.63
2023-03-24T17:08:57.655Z,6.33
2023-03-24T17:12:02.688Z,6.30
2023-03-24T17:15:07.831Z,8.40
2023-03-24T17:18:13.857Z,10.00
2023-03-24T17:21:20.273Z,10.93
2023-03-24T17:24:24.708Z,19.60
2023-03-24T17:27:28.908Z,8.53
2023-03-24T17:30:33.131Z,14.87
2023-03-24T17:33:38.706Z,9.23
2023-03-24T17:36:43.052Z,10.53
2023-03-24T17:39:47.736Z,9.60
2023-03-24T17:42:51.916Z,8.87
2023-03-24T17:45:58.835Z,8.20
2023-03-24T17:49:04.888Z,9.23
2023-03-24T17:52:09.427Z,13.80
2023-03-24T17:55:14.066Z,9.57
2023-03-24T17:58:18.263Z,12.67
2023-03-24T18:01:22.541Z,12.53
2023-03-24T18:04:28.424Z,12.17
2023-03-24T18:07:32.631Z,18.40
2023-03-24T18:10:37.292Z,14.67
2023-03-24T18:13:41.822Z,10.83
2023-03-24T18:16:45.991Z,9.93
2023-03-24T18:19:51.903Z,9.10
2023-03-24T18:22:56.213Z,10.70
2023-03-24T18:26:01.008Z,15.77
2023-03-24T18:29:06.144Z,16.63
2023-03-24T18:32:10.317Z,18.30
2023-03-24T18:35:17.837Z,20.77
2023-03-24T18:38:23.023Z,20.77
2023-03-24T18:41:28.629Z,20.23
2023-03-24T18:44:32.811Z,20.97
2023-03-24T18:47:37.358Z,20.33
2023-03-24T18:50:43.182Z,18.80
2023-03-24T18:53:48.081Z,17.40
2023-03-24T18:56:52.316Z,16.67
2023-03-24T18:59:56.478Z,15.60
2023-03-24T19:03:01.229Z,16.03
2023-03-24T19:06:08.881Z,15.63
2023-03-24T19:09:13.954Z,18.20
2023-03-24T19:12:18.109Z,21.00
2023-03-24T19:15:22.602Z,18.17
2023-03-24T19:18:27.116Z,17.70
2023-03-24T19:21:33.080Z,12.93
2023-03-24T19:24:37.396Z,13.43
2023-03-24T19:27:41.727Z,10.23
2023-03-24T19:30:45.992Z,7.43
2023-03-24T19:33:52.024Z,6.90
2023-03-24T19:36:58.529Z,6.37
2023-03-24T19:40:03.136Z,5.97
2023-03-24T19:43:07.237Z,7.20
2023-03-24T19:46:11.415Z,10.07
2023-03-24T19:49:16.188Z,12.27
2023-03-24T19:52:21.848Z,9.40
2023-03-24T19:55:29.582Z,7.37
2023-03-24T19:58:33.971Z,7.37
2023-03-24T20:01:38.443Z,6.53
2023-03-24T20:04:42.598Z,7.07
2023-03-24T20:07:48.543Z,6.13
2023-03-24T20:10:52.618Z,6.63
2023-03-24T20:13:56.806Z,6.73
2023-03-24T20:17:01.037Z,8.90
2023-03-24T20:20:07.867Z,6.80
2023-03-24T20:23:13.468Z,7.50
2023-03-24T20:26:17.706Z,8.77
2023-03-24T20:29:22.406Z,10.60
2023-03-24T20:32:26.709Z,10.13
2023-03-24T20:35:30.934Z,10.00
2023-03-24T20:38:36.627Z,8.20
2023-03-24T20:41:40.785Z,6.90
2023-03-24T20:44:44.806Z,6.97
2023-03-24T20:47:49.675Z,7.10
2023-03-24T20:50:53.834Z,7.17
2023-03-24T20:53:59.523Z,8.57
2023-03-24T20:57:03.779Z,8.10
2023-03-24T21:00:14.001Z,8.53
2023-03-24T21:03:18.550Z,8.33
2023-03-24T21:06:22.832Z,9.17
2023-03-24T21:09:28.886Z,9.10
2023-03-24T21:12:33.031Z,10.33
2023-03-24T21:15:42.992Z,12.07
2023-03-24T21:18:47.492Z,12.40
2023-03-24T21:21:51.675Z,11.73
2023-03-24T21:24:59.715Z,11.47
2023-03-24T21:28:03.955Z,9.13
2023-03-24T21:31:09.702Z,8.30
2023-03-24T21:34:13.890Z,8.67
2023-03-24T21:37:20.136Z,8.73
2023-03-24T21:40:27.256Z,9.07
2023-03-24T21:43:31.687Z,9.60
2023-03-24T21:46:35.818Z,8.77
2023-03-24T21:49:40.049Z,9.27
2023-03-24T21:52:47.380Z,9.03
2023-03-24T21:55:54.150Z,10.30
2023-03-24T21:58:58.629Z,10.40
2023-03-24T22:02:03.101Z,11.83
2023-03-24T22:05:07.938Z,13.40
2023-03-24T22:08:12.485Z,12.00
2023-03-24T22:11:19.695Z,11.27
2023-03-24T22:14:23.995Z,12.47
2023-03-24T22:17:28.473Z,12.83
2023-03-24T22:20:33.815Z,11.93
2023-03-24T22:23:40.410Z,11.97
2023-03-24T22:26:46.385Z,12.70
2023-03-24T22:29:50.473Z,14.93
2023-03-24T22:32:54.757Z,16.87
2023-03-24T22:35:59.458Z,16.73
2023-03-24T22:39:03.673Z,15.90
2023-03-24T22:42:09.384Z,14.63
2023-03-24T22:45:13.912Z,15.87
2023-03-24T22:48:18.120Z,14.50
2023-03-24T22:51:22.208Z,16.03
2023-03-24T22:54:26.842Z,14.83
2023-03-24T22:57:32.365Z,13.83
2023-03-24T23:00:36.628Z,12.97
2023-03-24T23:03:40.843Z,12.63
2023-03-24T23:06:46.603Z,12.90
2023-03-24T23:09:53.625Z,12.60
2023-03-24T23:12:59.294Z,11.70
2023-03-24T23:16:04.077Z,11.80
2023-03-24T23:19:10.060Z,11.13
2023-03-24T23:22:14.172Z,11.43
2023-03-24T23:25:23.271Z,11.47
2023-03-24T23:28:29.209Z,11.30
2023-03-24T23:31:33.415Z,11.03
2023-03-24T23:34:38.620Z,11.00
2023-03-24T23:37:42.862Z,11.83
2023-03-24T23:40:47.496Z,12.27
2023-03-24T23:43:54.666Z,10.83
2023-03-24T23:46:59.368Z,10.33
2023-03-24T23:50:03.991Z,10.17
2023-03-24T23:53:08.149Z,10.37
2023-03-24T23:56:15.235Z,9.77
2023-03-24T23:59:21.087Z,9.13
